sensor_id;sensor_type;location;lat;lon;timestamp;P1;durP1;ratioP1;P2;durP2;ratioP2
18364;SDS011;9309;52.126;11.616;2023-09-18T00:01:16;4.27;;;3.87;;
18364;SDS011;9309;52.126;11.616;2023-09-18T00:03:45;3.70;;;3.33;;
18364;SDS011;9309;52.126;11.616;2023-09-18T00:06:13;3.80;;;3.57;;
18364;SDS011;9309;52.126;11.616;2023-09-18T00:08:40;3.50;;;3.30;;
18364;SDS011;9309;52.126;11.616;2023-09-18T00:20:55;6.33;;;4.53;;
18364;SDS011;9309;52.126;11.616;2023-09-18T00:23:24;4.20;;;3.80;;
18364;SDS011;9309;52.126;11.616;2023-09-18T00:25:51;4.00;;;3.60;;
18364;SDS011;9309;52.126;11.616;2023-09-18T00:28:17;4.80;;;4.13;;
18364;SDS011;9309;52.126;11.616;2023-09-18T00:30:47;4.10;;;3.70;;
18364;SDS011;9309;52.126;11.616;2023-09-18T00:33:16;3.60;;;3.35;;
18364;SDS011;9309;52.126;11.616;2023-09-18T00:35:47;4.10;;;3.50;;
18364;SDS011;9309;52.126;11.616;2023-09-18T00:38:15;4.00;;;3.70;;
18364;SDS011;9309;52.126;11.616;2023-09-18T00:40:43;5.60;;;3.90;;
18364;SDS011;9309;52.126;11.616;2023-09-18T00:52:59;4.13;;;3.73;;
18364;SDS011;9309;52.126;11.616;2023-09-18T00:55:27;4.15;;;3.75;;
18364;SDS011;9309;52.126;11.616;2023-09-18T00:57:58;4.30;;;3.87;;
18364;SDS011;9309;52.126;11.616;2023-09-18T01:00:25;6.90;;;4.40;;
18364;SDS011;9309;52.126;11.616;2023-09-18T01:02:52;5.25;;;4.25;;
18364;SDS011;9309;52.126;11.616;2023-09-18T01:05:19;7.03;;;4.50;;
18364;SDS011;9309;52.126;11.616;2023-09-18T01:07:46;11.60;;;4.40;;
18364;SDS011;9309;52.126;11.616;2023-09-18T05:43:25;5.73;;;4.83;;
18364;SDS011;9309;52.126;11.616;2023-09-18T05:45:51;3.87;;;3.57;;
18364;SDS011;9309;52.126;11.616;2023-09-18T05:48:19;4.57;;;4.13;;
18364;SDS011;9309;52.126;11.616;2023-09-18T05:50:46;5.87;;;4.07;;
18364;SDS011;9309;52.126;11.616;2023-09-18T05:53:13;4.37;;;4.00;;
18364;SDS011;9309;52.126;11.616;2023-09-18T05:55:40;5.10;;;4.07;;
18364;SDS011;9309;52.126;11.616;2023-09-18T05:58:08;5.50;;;4.23;;
18364;SDS011;9309;52.126;11.616;2023-09-18T06:00:35;4.50;;;3.83;;
18364;SDS011;9309;52.126;11.616;2023-09-18T06:03:03;6.00;;;4.03;;
18364;SDS011;9309;52.126;11.616;2023-09-18T06:05:31;6.87;;;3.50;;
18364;SDS011;9309;52.126;11.616;2023-09-18T06:07:59;3.97;;;3.67;;
18364;SDS011;9309;52.126;11.616;2023-09-18T06:10:26;3.77;;;3.47;;
18364;SDS011;9309;52.126;11.616;2023-09-18T06:12:52;5.27;;;3.33;;
18364;SDS011;9309;52.126;11.616;2023-09-18T06:15:21;3.63;;;3.33;;
18364;SDS011;9309;52.126;11.616;2023-09-18T06:17:48;4.53;;;3.97;;
18364;SDS011;9309;52.126;11.616;2023-09-18T06:20:15;5.17;;;4.03;;
18364;SDS011;9309;52.126;11.616;2023-09-18T06:22:42;3.50;;;3.30;;
18364;SDS011;9309;52.126;11.616;2023-09-18T06:25:09;4.07;;;3.60;;
18364;SDS011;9309;52.126;11.616;2023-09-18T06:27:36;3.83;;;3.53;;
18364;SDS011;9309;52.126;11.616;2023-09-18T06:30:03;3.90;;;3.60;;
18364;SDS011;9309;52.126;11.616;2023-09-18T06:32:32;4.03;;;3.70;;
18364;SDS011;9309;52.126;11.616;2023-09-18T06:34:59;4.23;;;3.60;;
18364;SDS011;9309;52.126;11.616;2023-09-18T06:37:26;5.97;;;3.33;;
18364;SDS011;9309;52.126;11.616;2023-09-18T06:39:53;3.83;;;3.50;;
18364;SDS011;9309;52.126;11.616;2023-09-18T06:42:21;4.13;;;3.43;;
18364;SDS011;9309;52.126;11.616;2023-09-18T06:44:56;3.63;;;3.40;;
18364;SDS011;9309;52.126;11.616;2023-09-18T06:47:22;3.93;;;3.63;;
18364;SDS011;9309;52.126;11.616;2023-09-18T06:49:51;3.67;;;3.37;;
18364;SDS011;9309;52.126;11.616;2023-09-18T06:52:18;3.40;;;3.20;;
18364;SDS011;9309;52.126;11.616;2023-09-18T06:54:45;3.40;;;3.20;;
18364;SDS011;9309;52.126;11.616;2023-09-18T06:57:12;3.40;;;3.10;;
18364;SDS011;9309;52.126;11.616;2023-09-18T06:59:39;4.33;;;3.30;;
18364;SDS011;9309;52.126;11.616;2023-09-18T07:02:05;3.47;;;3.15;;
18364;SDS011;9309;52.126;11.616;2023-09-18T07:04:32;3.40;;;3.20;;
18364;SDS011;9309;52.126;11.616;2023-09-18T07:07:01;4.23;;;3.03;;
18364;SDS011;9309;52.126;11.616;2023-09-18T07:09:28;3.42;;;3.22;;
18364;SDS011;9309;52.126;11.616;2023-09-18T07:11:55;3.47;;;3.25;;
18364;SDS011;9309;52.126;11.616;2023-09-18T07:14:22;5.10;;;3.67;;
18364;SDS011;9309;52.126;11.616;2023-09-18T07:16:49;5.88;;;3.53;;
18364;SDS011;9309;52.126;11.616;2023-09-18T07:19:16;3.45;;;3.15;;
18364;SDS011;9309;52.126;11.616;2023-09-18T07:21:43;3.30;;;3.00;;
18364;SDS011;9309;52.126;11.616;2023-09-18T07:24:11;3.30;;;2.97;;
18364;SDS011;9309;52.126;11.616;2023-09-18T07:26:43;2.95;;;2.75;;
18364;SDS011;9309;52.126;11.616;2023-09-18T07:29:11;2.90;;;2.70;;
18364;SDS011;9309;52.126;11.616;2023-09-18T07:31:40;3.63;;;2.60;;
18364;SDS011;9309;52.126;11.616;2023-09-18T07:34:07;3.78;;;3.10;;
18364;SDS011;9309;52.126;11.616;2023-09-18T07:36:34;3.15;;;2.78;;
18364;SDS011;9309;52.126;11.616;2023-09-18T07:39:01;2.63;;;2.47;;
18364;SDS011;9309;52.126;11.616;2023-09-18T07:41:31;5.35;;;2.85;;
18364;SDS011;9309;52.126;11.616;2023-09-18T07:43:58;3.08;;;2.88;;
18364;SDS011;9309;52.126;11.616;2023-09-18T07:46:25;2.88;;;2.65;;
18364;SDS011;9309;52.126;11.616;2023-09-18T07:48:52;2.90;;;2.70;;
18364;SDS011;9309;52.126;11.616;2023-09-18T07:51:20;3.45;;;3.15;;
18364;SDS011;9309;52.126;11.616;2023-09-18T07:53:47;3.10;;;2.90;;
18364;SDS011;9309;52.126;11.616;2023-09-18T07:56:13;3.28;;;3.05;;
18364;SDS011;9309;52.126;11.616;2023-09-18T07:58:42;2.90;;;2.55;;
18364;SDS011;9309;52.126;11.616;2023-09-18T08:01:08;3.17;;;2.95;;
18364;SDS011;9309;52.126;11.616;2023-09-18T08:03:35;2.88;;;2.67;;
18364;SDS011;9309;52.126;11.616;2023-09-18T08:06:02;2.83;;;2.63;;
18364;SDS011;9309;52.126;11.616;2023-09-18T08:08:30;4.32;;;2.58;;
18364;SDS011;9309;52.126;11.616;2023-09-18T08:11:00;3.17;;;2.97;;
18364;SDS011;9309;52.126;11.616;2023-09-18T08:13:34;9.27;;;3.10;;
18364;SDS011;9309;52.126;11.616;2023-09-18T08:16:03;3.10;;;2.70;;
18364;SDS011;9309;52.126;11.616;2023-09-18T08:18:32;2.95;;;2.80;;
18364;SDS011;9309;52.126;11.616;2023-09-18T08:20:59;3.90;;;2.47;;
18364;SDS011;9309;52.126;11.616;2023-09-18T08:23:26;4.57;;;3.28;;
18364;SDS011;9309;52.126;11.616;2023-09-18T08:25:53;6.78;;;3.65;;
18364;SDS011;9309;52.126;11.616;2023-09-18T08:28:22;5.45;;;3.42;;
18364;SDS011;9309;52.126;11.616;2023-09-18T08:30:49;3.03;;;2.83;;
18364;SDS011;9309;52.126;11.616;2023-09-18T08:33:17;3.75;;;2.80;;
18364;SDS011;9309;52.126;11.616;2023-09-18T08:35:44;2.85;;;2.65;;
18364;SDS011;9309;52.126;11.616;2023-09-18T08:38:12;3.33;;;2.88;;
18364;SDS011;9309;52.126;11.616;2023-09-18T08:40:40;3.47;;;2.55;;
18364;SDS011;9309;52.126;11.616;2023-09-18T08:43:09;3.95;;;2.70;;
18364;SDS011;9309;52.126;11.616;2023-09-18T08:45:39;3.30;;;2.85;;
18364;SDS011;9309;52.126;11.616;2023-09-18T08:48:11;5.38;;;2.90;;
18364;SDS011;9309;52.126;11.616;2023-09-18T08:50:39;5.22;;;3.00;;
18364;SDS011;9309;52.126;11.616;2023-09-18T08:53:06;2.92;;;2.40;;
18364;SDS011;9309;52.126;11.616;2023-09-18T08:55:34;5.10;;;3.35;;
18364;SDS011;9309;52.126;11.616;2023-09-18T08:58:01;2.95;;;2.78;;
18364;SDS011;9309;52.126;11.616;2023-09-18T09:00:28;4.63;;;3.10;;
18364;SDS011;9309;52.126;11.616;2023-09-18T09:02:55;4.13;;;3.63;;
18364;SDS011;9309;52.126;11.616;2023-09-18T09:05:22;3.08;;;2.88;;
18364;SDS011;9309;52.126;11.616;2023-09-18T09:07:50;2.92;;;2.17;;
18364;SDS011;9309;52.126;11.616;2023-09-18T09:10:17;2.85;;;2.40;;
18364;SDS011;9309;52.126;11.616;2023-09-18T09:12:48;2.90;;;2.70;;
18364;SDS011;9309;52.126;11.616;2023-09-18T09:15:18;2.90;;;2.70;;
18364;SDS011;9309;52.126;11.616;2023-09-18T09:17:45;3.00;;;2.80;;
18364;SDS011;9309;52.126;11.616;2023-09-18T09:20:16;2.88;;;2.72;;
18364;SDS011;9309;52.126;11.616;2023-09-18T09:22:44;2.65;;;2.55;;
18364;SDS011;9309;52.126;11.616;2023-09-18T09:25:25;2.65;;;2.55;;
18364;SDS011;9309;52.126;11.616;2023-09-18T09:27:52;2.60;;;2.50;;
18364;SDS011;9309;52.126;11.616;2023-09-18T09:30:20;2.72;;;2.40;;
18364;SDS011;9309;52.126;11.616;2023-09-18T09:32:49;2.38;;;2.28;;
18364;SDS011;9309;52.126;11.616;2023-09-18T09:35:23;2.33;;;2.22;;
18364;SDS011;9309;52.126;11.616;2023-09-18T09:37:52;2.13;;;2.03;;
18364;SDS011;9309;52.126;11.616;2023-09-18T09:40:20;2.72;;;2.53;;
18364;SDS011;9309;52.126;11.616;2023-09-18T09:42:52;1.98;;;1.88;;
18364;SDS011;9309;52.126;11.616;2023-09-18T09:45:25;5.97;;;2.22;;
18364;SDS011;9309;52.126;11.616;2023-09-18T09:47:53;11.25;;;2.72;;
18364;SDS011;9309;52.126;11.616;2023-09-18T09:50:20;2.97;;;2.75;;
18364;SDS011;9309;52.126;11.616;2023-09-18T09:52:48;2.03;;;1.98;;
18364;SDS011;9309;52.126;11.616;2023-09-18T09:55:25;3.20;;;2.85;;
18364;SDS011;9309;52.126;11.616;2023-09-18T09:57:54;2.47;;;2.38;;
18364;SDS011;9309;52.126;11.616;2023-09-18T10:00:25;2.30;;;2.25;;
18364;SDS011;9309;52.126;11.616;2023-09-18T10:03:02;2.38;;;2.22;;
18364;SDS011;9309;52.126;11.616;2023-09-18T10:05:31;2.08;;;1.80;;
18364;SDS011;9309;52.126;11.616;2023-09-18T10:08:02;2.42;;;2.22;;
18364;SDS011;9309;52.126;11.616;2023-09-18T10:10:35;2.35;;;2.25;;
18364;SDS011;9309;52.126;11.616;2023-09-18T10:13:08;2.97;;;2.83;;
18364;SDS011;9309;52.126;11.616;2023-09-18T10:15:37;2.78;;;2.67;;
18364;SDS011;9309;52.126;11.616;2023-09-18T10:18:10;2.92;;;2.10;;
18364;SDS011;9309;52.126;11.616;2023-09-18T10:20:44;3.03;;;2.80;;
18364;SDS011;9309;52.126;11.616;2023-09-18T10:23:15;2.97;;;2.72;;
18364;SDS011;9309;52.126;11.616;2023-09-18T10:25:55;2.55;;;2.30;;
18364;SDS011;9309;52.126;11.616;2023-09-18T10:28:28;2.38;;;2.17;;
18364;SDS011;9309;52.126;11.616;2023-09-18T10:30:56;3.92;;;2.85;;
18364;SDS011;9309;52.126;11.616;2023-09-18T10:33:24;2.25;;;2.15;;
18364;SDS011;9309;52.126;11.616;2023-09-18T10:35:52;2.38;;;2.28;;
18364;SDS011;9309;52.126;11.616;2023-09-18T10:38:21;8.38;;;2.55;;
18364;SDS011;9309;52.126;11.616;2023-09-18T10:40:48;4.15;;;1.88;;
18364;SDS011;9309;52.126;11.616;2023-09-18T10:43:18;2.50;;;2.40;;
18364;SDS011;9309;52.126;11.616;2023-09-18T10:45:45;3.60;;;3.03;;
18364;SDS011;9309;52.126;11.616;2023-09-18T10:48:13;2.92;;;2.25;;
18364;SDS011;9309;52.126;11.616;2023-09-18T10:50:43;2.45;;;2.25;;
18364;SDS011;9309;52.126;11.616;2023-09-18T10:53:11;3.70;;;2.38;;
18364;SDS011;9309;52.126;11.616;2023-09-18T10:55:38;8.18;;;2.72;;
18364;SDS011;9309;52.126;11.616;2023-09-18T10:58:08;2.33;;;2.13;;
18364;SDS011;9309;52.126;11.616;2023-09-18T11:00:36;2.70;;;2.50;;
18364;SDS011;9309;52.126;11.616;2023-09-18T11:03:10;2.45;;;2.33;;
18364;SDS011;9309;52.126;11.616;2023-09-18T11:05:39;3.40;;;2.17;;
18364;SDS011;9309;52.126;11.616;2023-09-18T11:08:25;2.30;;;2.10;;
18364;SDS011;9309;52.126;11.616;2023-09-18T11:10:59;2.08;;;1.98;;
18364;SDS011;9309;52.126;11.616;2023-09-18T11:13:35;2.40;;;2.30;;
18364;SDS011;9309;52.126;11.616;2023-09-18T11:16:14;5.15;;;2.40;;
18364;SDS011;9309;52.126;11.616;2023-09-18T11:19:10;2.17;;;2.08;;
18364;SDS011;9309;52.126;11.616;2023-09-18T11:21:39;2.30;;;2.10;;
18364;SDS011;9309;52.126;11.616;2023-09-18T11:24:06;4.32;;;2.67;;
18364;SDS011;9309;52.126;11.616;2023-09-18T11:26:42;5.93;;;2.83;;
18364;SDS011;9309;52.126;11.616;2023-09-18T11:29:09;3.00;;;2.08;;
18364;SDS011;9309;52.126;11.616;2023-09-18T11:31:48;2.05;;;1.95;;
18364;SDS011;9309;52.126;11.616;2023-09-18T11:34:19;2.05;;;1.70;;
18364;SDS011;9309;52.126;11.616;2023-09-18T11:36:47;1.73;;;1.60;;
18364;SDS011;9309;52.126;11.616;2023-09-18T11:39:32;2.22;;;1.95;;
18364;SDS011;9309;52.126;11.616;2023-09-18T11:42:07;1.50;;;1.50;;
18364;SDS011;9309;52.126;11.616;2023-09-18T11:44:36;2.35;;;1.60;;
18364;SDS011;9309;52.126;11.616;2023-09-18T11:47:08;2.85;;;1.55;;
18364;SDS011;9309;52.126;11.616;2023-09-18T11:49:42;1.27;;;1.27;;
18364;SDS011;9309;52.126;11.616;2023-09-18T11:52:14;4.10;;;2.03;;
18364;SDS011;9309;52.126;11.616;2023-09-18T11:54:42;2.13;;;1.80;;
18364;SDS011;9309;52.126;11.616;2023-09-18T11:57:11;2.88;;;2.00;;
18364;SDS011;9309;52.126;11.616;2023-09-18T11:59:40;5.90;;;1.73;;
18364;SDS011;9309;52.126;11.616;2023-09-18T12:02:10;5.40;;;1.50;;
18364;SDS011;9309;52.126;11.616;2023-09-18T12:04:45;1.95;;;1.35;;
18364;SDS011;9309;52.126;11.616;2023-09-18T12:07:13;2.05;;;1.30;;
18364;SDS011;9309;52.126;11.616;2023-09-18T12:09:40;3.80;;;1.73;;
18364;SDS011;9309;52.126;11.616;2023-09-18T12:12:06;1.48;;;1.48;;
18364;SDS011;9309;52.126;11.616;2023-09-18T12:14:34;1.25;;;1.25;;
18364;SDS011;9309;52.126;11.616;2023-09-18T12:17:02;5.90;;;1.50;;
18364;SDS011;9309;52.126;11.616;2023-09-18T12:19:31;8.38;;;1.60;;
18364;SDS011;9309;52.126;11.616;2023-09-18T12:21:59;1.15;;;1.00;;
18364;SDS011;9309;52.126;11.616;2023-09-18T12:24:26;1.17;;;1.17;;
18364;SDS011;9309;52.126;11.616;2023-09-18T12:26:53;5.85;;;1.67;;
18364;SDS011;9309;52.126;11.616;2023-09-18T12:29:21;1.65;;;1.20;;
18364;SDS011;9309;52.126;11.616;2023-09-18T12:31:48;1.38;;;1.15;;
18364;SDS011;9309;52.126;11.616;2023-09-18T12:34:17;1.90;;;1.33;;
18364;SDS011;9309;52.126;11.616;2023-09-18T12:36:48;3.47;;;1.40;;
18364;SDS011;9309;52.126;11.616;2023-09-18T12:39:16;2.22;;;1.55;;
18364;SDS011;9309;52.126;11.616;2023-09-18T12:41:44;6.82;;;1.60;;
18364;SDS011;9309;52.126;11.616;2023-09-18T12:44:11;2.45;;;1.35;;
18364;SDS011;9309;52.126;11.616;2023-09-18T12:46:39;1.70;;;1.27;;
18364;SDS011;9309;52.126;11.616;2023-09-18T12:49:17;2.20;;;1.30;;
18364;SDS011;9309;52.126;11.616;2023-09-18T12:51:44;1.08;;;1.08;;
18364;SDS011;9309;52.126;11.616;2023-09-18T12:54:20;1.75;;;1.75;;
18364;SDS011;9309;52.126;11.616;2023-09-18T12:56:47;1.30;;;1.20;;
18364;SDS011;9309;52.126;11.616;2023-09-18T12:59:14;1.10;;;1.10;;
18364;SDS011;9309;52.126;11.616;2023-09-18T13:01:45;1.10;;;1.10;;
18364;SDS011;9309;52.126;11.616;2023-09-18T13:04:13;2.05;;;1.27;;
18364;SDS011;9309;52.126;11.616;2023-09-18T13:06:39;1.45;;;1.40;;
18364;SDS011;9309;52.126;11.616;2023-09-18T13:09:17;2.25;;;1.10;;
18364;SDS011;9309;52.126;11.616;2023-09-18T13:11:52;2.35;;;1.08;;
18364;SDS011;9309;52.126;11.616;2023-09-18T13:14:20;2.97;;;1.95;;
18364;SDS011;9309;52.126;11.616;2023-09-18T13:16:46;1.83;;;1.50;;
18364;SDS011;9309;52.126;11.616;2023-09-18T13:19:13;1.00;;;1.00;;
18364;SDS011;9309;52.126;11.616;2023-09-18T13:21:45;2.10;;;1.08;;
18364;SDS011;9309;52.126;11.616;2023-09-18T13:24:24;1.20;;;1.20;;
18364;SDS011;9309;52.126;11.616;2023-09-18T13:26:52;1.95;;;1.00;;
18364;SDS011;9309;52.126;11.616;2023-09-18T13:29:19;1.55;;;0.93;;
18364;SDS011;9309;52.126;11.616;2023-09-18T13:31:46;5.88;;;1.33;;
18364;SDS011;9309;52.126;11.616;2023-09-18T13:34:13;1.02;;;1.02;;
18364;SDS011;9309;52.126;11.616;2023-09-18T13:36:42;2.83;;;1.20;;
18364;SDS011;9309;52.126;11.616;2023-09-18T13:39:10;1.33;;;1.30;;
18364;SDS011;9309;52.126;11.616;2023-09-18T13:41:38;2.92;;;1.52;;
18364;SDS011;9309;52.126;11.616;2023-09-18T13:44:06;2.38;;;1.30;;
18364;SDS011;9309;52.126;11.616;2023-09-18T13:46:33;1.27;;;1.20;;
18364;SDS011;9309;52.126;11.616;2023-09-18T13:49:01;2.00;;;1.50;;
18364;SDS011;9309;52.126;11.616;2023-09-18T13:51:30;1.42;;;1.33;;
18364;SDS011;9309;52.126;11.616;2023-09-18T13:53:57;3.42;;;1.40;;
18364;SDS011;9309;52.126;11.616;2023-09-18T13:56:24;3.97;;;1.38;;
18364;SDS011;9309;52.126;11.616;2023-09-18T13:58:54;3.90;;;1.85;;
18364;SDS011;9309;52.126;11.616;2023-09-18T14:01:22;1.83;;;1.15;;
18364;SDS011;9309;52.126;11.616;2023-09-18T14:03:50;1.25;;;1.20;;
18364;SDS011;9309;52.126;11.616;2023-09-18T14:06:17;2.00;;;1.25;;
18364;SDS011;9309;52.126;11.616;2023-09-18T14:08:44;2.88;;;1.00;;
18364;SDS011;9309;52.126;11.616;2023-09-18T14:11:11;1.95;;;1.05;;
18364;SDS011;9309;52.126;11.616;2023-09-18T14:13:37;6.53;;;1.20;;
18364;SDS011;9309;52.126;11.616;2023-09-18T14:16:06;1.65;;;1.55;;
18364;SDS011;9309;52.126;11.616;2023-09-18T14:18:32;1.13;;;1.13;;
18364;SDS011;9309;52.126;11.616;2023-09-18T14:20:59;0.90;;;0.90;;
18364;SDS011;9309;52.126;11.616;2023-09-18T14:23:26;7.28;;;1.50;;
18364;SDS011;9309;52.126;11.616;2023-09-18T14:25:53;2.38;;;1.50;;
18364;SDS011;9309;52.126;11.616;2023-09-18T14:28:20;1.15;;;1.13;;
18364;SDS011;9309;52.126;11.616;2023-09-18T14:30:47;3.10;;;1.45;;
18364;SDS011;9309;52.126;11.616;2023-09-18T14:33:15;2.28;;;1.75;;
18364;SDS011;9309;52.126;11.616;2023-09-18T14:35:42;1.38;;;1.35;;
18364;SDS011;9309;52.126;11.616;2023-09-18T14:38:08;1.70;;;1.60;;
18364;SDS011;9309;52.126;11.616;2023-09-18T14:40:35;2.88;;;1.20;;
18364;SDS011;9309;52.126;11.616;2023-09-18T14:43:02;4.35;;;1.73;;
18364;SDS011;9309;52.126;11.616;2023-09-18T14:45:30;0.80;;;0.80;;
18364;SDS011;9309;52.126;11.616;2023-09-18T14:47:57;1.02;;;1.00;;
18364;SDS011;9309;52.126;11.616;2023-09-18T14:50:26;2.15;;;1.83;;
18364;SDS011;9309;52.126;11.616;2023-09-18T14:52:53;1.38;;;1.27;;
18364;SDS011;9309;52.126;11.616;2023-09-18T14:55:19;1.08;;;1.08;;
18364;SDS011;9309;52.126;11.616;2023-09-18T14:57:46;3.40;;;1.58;;
18364;SDS011;9309;52.126;11.616;2023-09-18T15:00:14;1.00;;;1.00;;
18364;SDS011;9309;52.126;11.616;2023-09-18T15:02:41;2.15;;;1.30;;
18364;SDS011;9309;52.126;11.616;2023-09-18T15:05:08;5.07;;;2.55;;
18364;SDS011;9309;52.126;11.616;2023-09-18T15:07:38;2.50;;;1.20;;
18364;SDS011;9309;52.126;11.616;2023-09-18T15:10:05;7.25;;;1.30;;
18364;SDS011;9309;52.126;11.616;2023-09-18T15:12:33;2.30;;;0.95;;
18364;SDS011;9309;52.126;11.616;2023-09-18T15:15:00;1.77;;;1.25;;
18364;SDS011;9309;52.126;11.616;2023-09-18T15:17:27;3.92;;;1.42;;
18364;SDS011;9309;52.126;11.616;2023-09-18T15:19:54;0.98;;;0.98;;
18364;SDS011;9309;52.126;11.616;2023-09-18T15:22:21;6.75;;;2.30;;
18364;SDS011;9309;52.126;11.616;2023-09-18T15:24:49;2.13;;;1.10;;
18364;SDS011;9309;52.126;11.616;2023-09-18T15:27:16;1.63;;;1.52;;
18364;SDS011;9309;52.126;11.616;2023-09-18T15:29:43;2.35;;;1.40;;
18364;SDS011;9309;52.126;11.616;2023-09-18T15:32:09;1.40;;;1.30;;
18364;SDS011;9309;52.126;11.616;2023-09-18T15:34:36;0.82;;;0.82;;
18364;SDS011;9309;52.126;11.616;2023-09-18T15:37:03;1.60;;;1.00;;
18364;SDS011;9309;52.126;11.616;2023-09-18T15:39:30;2.67;;;1.20;;
18364;SDS011;9309;52.126;11.616;2023-09-18T15:41:59;2.75;;;1.38;;
18364;SDS011;9309;52.126;11.616;2023-09-18T15:44:25;1.40;;;1.30;;
18364;SDS011;9309;52.126;11.616;2023-09-18T15:46:52;1.13;;;1.13;;
18364;SDS011;9309;52.126;11.616;2023-09-18T15:49:20;2.58;;;1.38;;
18364;SDS011;9309;52.126;11.616;2023-09-18T15:51:46;2.80;;;0.98;;
18364;SDS011;9309;52.126;11.616;2023-09-18T15:54:13;3.10;;;1.40;;
18364;SDS011;9309;52.126;11.616;2023-09-18T15:56:41;3.30;;;1.42;;
18364;SDS011;9309;52.126;11.616;2023-09-18T15:59:10;2.90;;;1.25;;
18364;SDS011;9309;52.126;11.616;2023-09-18T16:01:37;5.22;;;1.48;;
18364;SDS011;9309;52.126;11.616;2023-09-18T16:04:05;2.83;;;1.30;;
18364;SDS011;9309;52.126;11.616;2023-09-18T16:06:32;1.17;;;1.17;;
18364;SDS011;9309;52.126;11.616;2023-09-18T16:08:59;2.70;;;1.25;;
18364;SDS011;9309;52.126;11.616;2023-09-18T16:11:26;3.25;;;1.13;;
18364;SDS011;9309;52.126;11.616;2023-09-18T16:13:54;1.42;;;1.33;;
18364;SDS011;9309;52.126;11.616;2023-09-18T16:16:23;2.67;;;1.27;;
18364;SDS011;9309;52.126;11.616;2023-09-18T16:18:50;2.42;;;2.22;;
18364;SDS011;9309;52.126;11.616;2023-09-18T16:21:21;3.65;;;1.15;;
18364;SDS011;9309;52.126;11.616;2023-09-18T16:23:48;1.35;;;1.35;;
18364;SDS011;9309;52.126;11.616;2023-09-18T16:26:14;3.05;;;1.75;;
18364;SDS011;9309;52.126;11.616;2023-09-18T16:28:41;2.17;;;1.38;;
18364;SDS011;9309;52.126;11.616;2023-09-18T16:31:08;5.65;;;1.30;;
18364;SDS011;9309;52.126;11.616;2023-09-18T16:33:36;4.60;;;1.23;;
18364;SDS011;9309;52.126;11.616;2023-09-18T16:36:03;2.58;;;1.30;;
18364;SDS011;9309;52.126;11.616;2023-09-18T16:38:30;1.42;;;1.20;;
18364;SDS011;9309;52.126;11.616;2023-09-18T16:40:57;3.45;;;1.27;;
18364;SDS011;9309;52.126;11.616;2023-09-18T16:43:24;7.32;;;1.52;;
18364;SDS011;9309;52.126;11.616;2023-09-18T16:45:50;1.38;;;1.27;;
18364;SDS011;9309;52.126;11.616;2023-09-18T16:48:17;1.67;;;1.65;;
18364;SDS011;9309;52.126;11.616;2023-09-18T16:50:45;2.38;;;1.30;;
18364;SDS011;9309;52.126;11.616;2023-09-18T16:53:12;1.25;;;1.15;;
18364;SDS011;9309;52.126;11.616;2023-09-18T16:55:39;1.52;;;1.40;;
18364;SDS011;9309;52.126;11.616;2023-09-18T16:58:05;1.48;;;1.38;;
18364;SDS011;9309;52.126;11.616;2023-09-18T17:00:32;2.50;;;1.70;;
18364;SDS011;9309;52.126;11.616;2023-09-18T17:02:59;1.95;;;1.50;;
18364;SDS011;9309;52.126;11.616;2023-09-18T17:05:26;1.88;;;1.75;;
18364;SDS011;9309;52.126;11.616;2023-09-18T17:07:54;1.65;;;1.50;;
18364;SDS011;9309;52.126;11.616;2023-09-18T17:10:21;2.08;;;1.65;;
18364;SDS011;9309;52.126;11.616;2023-09-18T17:12:50;2.00;;;1.58;;
18364;SDS011;9309;52.126;11.616;2023-09-18T17:15:17;3.67;;;2.03;;
18364;SDS011;9309;52.126;11.616;2023-09-18T17:17:44;2.65;;;1.67;;
18364;SDS011;9309;52.126;11.616;2023-09-18T17:20:11;5.80;;;1.85;;
18364;SDS011;9309;52.126;11.616;2023-09-18T17:22:38;1.88;;;1.60;;
18364;SDS011;9309;52.126;11.616;2023-09-18T17:25:07;1.67;;;1.58;;
18364;SDS011;9309;52.126;11.616;2023-09-18T17:27:35;11.63;;;1.50;;
18364;SDS011;9309;52.126;11.616;2023-09-18T17:30:01;1.73;;;1.20;;
18364;SDS011;9309;52.126;11.616;2023-09-18T17:32:29;1.35;;;1.35;;
18364;SDS011;9309;52.126;11.616;2023-09-18T17:34:56;3.90;;;1.70;;
18364;SDS011;9309;52.126;11.616;2023-09-18T17:37:23;1.52;;;1.52;;
18364;SDS011;9309;52.126;11.616;2023-09-18T17:39:51;1.75;;;1.50;;
18364;SDS011;9309;52.126;11.616;2023-09-18T17:42:19;3.70;;;1.73;;
18364;SDS011;9309;52.126;11.616;2023-09-18T17:44:45;2.25;;;1.63;;
18364;SDS011;9309;52.126;11.616;2023-09-18T17:47:12;5.78;;;1.77;;
18364;SDS011;9309;52.126;11.616;2023-09-18T17:49:39;1.95;;;1.50;;
18364;SDS011;9309;52.126;11.616;2023-09-18T17:52:06;1.75;;;1.65;;
18364;SDS011;9309;52.126;11.616;2023-09-18T17:54:34;1.75;;;1.65;;
18364;SDS011;9309;52.126;11.616;2023-09-18T17:57:01;2.17;;;1.23;;
18364;SDS011;9309;52.126;11.616;2023-09-18T17:59:30;5.15;;;1.75;;
18364;SDS011;9309;52.126;11.616;2023-09-18T18:01:56;1.70;;;1.60;;
18364;SDS011;9309;52.126;11.616;2023-09-18T18:04:23;4.68;;;1.60;;
18364;SDS011;9309;52.126;11.616;2023-09-18T18:06:52;1.70;;;1.40;;
18364;SDS011;9309;52.126;11.616;2023-09-18T18:09:19;4.57;;;1.60;;
18364;SDS011;9309;52.126;11.616;2023-09-18T18:11:46;3.67;;;1.77;;
18364;SDS011;9309;52.126;11.616;2023-09-18T18:14:13;1.80;;;1.70;;
18364;SDS011;9309;52.126;11.616;2023-09-18T18:16:42;1.92;;;1.83;;
18364;SDS011;9309;52.126;11.616;2023-09-18T18:19:08;3.80;;;1.88;;
18364;SDS011;9309;52.126;11.616;2023-09-18T18:21:35;6.95;;;1.85;;
18364;SDS011;9309;52.126;11.616;2023-09-18T18:24:02;1.75;;;1.65;;
18364;SDS011;9309;52.126;11.616;2023-09-18T18:26:31;1.90;;;1.85;;
18364;SDS011;9309;52.126;11.616;2023-09-18T18:28:59;16.67;;;2.60;;
18364;SDS011;9309;52.126;11.616;2023-09-18T18:31:28;2.45;;;2.25;;
18364;SDS011;9309;52.126;11.616;2023-09-18T18:33:56;1.90;;;1.80;;
18364;SDS011;9309;52.126;11.616;2023-09-18T18:36:25;1.83;;;1.73;;
18364;SDS011;9309;52.126;11.616;2023-09-18T18:38:51;1.60;;;1.50;;
18364;SDS011;9309;52.126;11.616;2023-09-18T18:41:18;4.80;;;1.67;;
18364;SDS011;9309;52.126;11.616;2023-09-18T18:43:45;2.35;;;2.00;;
18364;SDS011;9309;52.126;11.616;2023-09-18T18:46:12;1.92;;;1.85;;
18364;SDS011;9309;52.126;11.616;2023-09-18T18:48:39;1.92;;;1.73;;
18364;SDS011;9309;52.126;11.616;2023-09-18T18:51:08;2.17;;;2.03;;
18364;SDS011;9309;52.126;11.616;2023-09-18T18:53:36;1.50;;;1.50;;
18364;SDS011;9309;52.126;11.616;2023-09-18T18:56:04;2.15;;;1.80;;
18364;SDS011;9309;52.126;11.616;2023-09-18T18:58:30;2.92;;;1.88;;
18364;SDS011;9309;52.126;11.616;2023-09-18T19:00:59;2.35;;;1.90;;
18364;SDS011;9309;52.126;11.616;2023-09-18T19:03:28;2.83;;;2.40;;
18364;SDS011;9309;52.126;11.616;2023-09-18T19:05:56;2.00;;;1.90;;
18364;SDS011;9309;52.126;11.616;2023-09-18T19:08:25;1.65;;;1.65;;
18364;SDS011;9309;52.126;11.616;2023-09-18T19:10:52;3.60;;;1.55;;
18364;SDS011;9309;52.126;11.616;2023-09-18T19:13:19;7.07;;;2.00;;
18364;SDS011;9309;52.126;11.616;2023-09-18T19:15:46;3.33;;;1.63;;
18364;SDS011;9309;52.126;11.616;2023-09-18T19:22:00;4.03;;;2.05;;
18364;SDS011;9309;52.126;11.616;2023-09-18T19:24:28;2.05;;;1.77;;
18364;SDS011;9309;52.126;11.616;2023-09-18T19:26:55;1.90;;;1.80;;
18364;SDS011;9309;52.126;11.616;2023-09-18T19:29:21;1.45;;;1.45;;
18364;SDS011;9309;52.126;11.616;2023-09-18T19:31:49;1.55;;;1.52;;
18364;SDS011;9309;52.126;11.616;2023-09-18T19:34:16;1.60;;;1.60;;
18364;SDS011;9309;52.126;11.616;2023-09-18T19:36:43;2.83;;;1.80;;
18364;SDS011;9309;52.126;11.616;2023-09-18T19:39:13;2.17;;;1.75;;
18364;SDS011;9309;52.126;11.616;2023-09-18T19:41:41;1.60;;;1.50;;
18364;SDS011;9309;52.126;11.616;2023-09-18T19:44:08;4.07;;;1.95;;
18364;SDS011;9309;52.126;11.616;2023-09-18T19:46:34;4.68;;;1.73;;
18364;SDS011;9309;52.126;11.616;2023-09-18T19:49:03;3.67;;;1.70;;
18364;SDS011;9309;52.126;11.616;2023-09-18T19:51:30;1.50;;;1.50;;